createdAt,value
2022-09-23T00:00:21.547Z,5.8
2022-09-23T00:01:37.831Z,5.8
2022-09-23T00:02:54.129Z,5.8
2022-09-23T00:04:10.431Z,5.8
2022-09-23T00:05:26.726Z,5.8
2022-09-23T00:06:43.017Z,5.8
2022-09-23T00:07:59.302Z,5.7
2022-09-23T00:10:31.889Z,5.7
2022-09-23T00:11:48.175Z,5.8
2022-09-23T00:13:03.487Z,5.7
2022-09-23T00:14:19.781Z,5.8
2022-09-23T00:15:36.081Z,5.7
2022-09-23T00:16:52.380Z,5.8
2022-09-23T00:18:08.656Z,5.7
2022-09-23T00:19:24.961Z,5.7
2022-09-23T00:20:41.245Z,5.7
2022-09-23T00:21:57.553Z,5.7
2022-09-23T00:23:13.826Z,5.7
2022-09-23T00:24:30.121Z,5.7
2022-09-23T00:25:46.423Z,5.7
2022-09-23T00:27:02.724Z,5.7
2022-09-23T00:28:19.008Z,5.7
2022-09-23T00:29:34.309Z,5.7
2022-09-23T00:30:50.601Z,5.7
2022-09-23T00:32:06.894Z,5.6
2022-09-23T00:33:23.190Z,5.6
2022-09-23T00:34:39.492Z,5.6
2022-09-23T00:35:55.792Z,5.6
2022-09-23T00:37:11.090Z,5.5
2022-09-23T00:38:27.384Z,5.6
2022-09-23T00:39:43.693Z,5.5
2022-09-23T00:40:59.983Z,5.5
2022-09-23T00:42:16.277Z,5.5
2022-09-23T00:43:32.572Z,5.5
2022-09-23T00:44:48.846Z,5.5
2022-09-23T00:46:05.147Z,5.5
2022-09-23T00:47:21.447Z,5.6
2022-09-23T00:48:37.726Z,5.5
2022-09-23T00:49:54.025Z,5.5
2022-09-23T00:51:10.319Z,5.5
2022-09-23T00:52:26.607Z,5.5
2022-09-23T00:53:41.918Z,5.5
2022-09-23T00:54:58.220Z,5.5
2022-09-23T00:56:14.501Z,5.4
2022-09-23T00:57:30.797Z,5.5
2022-09-23T00:58:47.096Z,5.5
2022-09-23T01:00:03.380Z,5.5
2022-09-23T01:01:19.673Z,5.4
2022-09-23T01:02:35.980Z,5.5
2022-09-23T01:03:52.275Z,5.5
2022-09-23T01:05:08.565Z,5.5
2022-09-23T01:06:24.855Z,5.5
2022-09-23T01:07:41.148Z,5.5
2022-09-23T01:08:57.445Z,5.5
2022-09-23T01:10:12.747Z,5.5
2022-09-23T01:11:29.046Z,5.5
2022-09-23T01:12:45.337Z,5.5
2022-09-23T01:14:01.632Z,5.5
2022-09-23T01:15:17.921Z,5.5
2022-09-23T01:16:34.210Z,5.5
2022-09-23T01:17:50.500Z,5.5
2022-09-23T01:19:06.807Z,5.5
2022-09-23T01:20:23.089Z,5.5
2022-09-23T01:21:39.395Z,5.5
2022-09-23T01:22:55.679Z,5.5
2022-09-23T01:24:11.979Z,5.5
2022-09-23T01:25:28.266Z,5.5
2022-09-23T01:26:43.585Z,5.4
2022-09-23T01:27:59.859Z,5.5
2022-09-23T01:29:16.171Z,5.5
2022-09-23T01:30:32.454Z,5.5
2022-09-23T01:31:48.751Z,5.4
2022-09-23T01:33:05.037Z,5.4
2022-09-23T01:34:21.330Z,5.5
2022-09-23T01:35:37.624Z,5.5
2022-09-23T01:36:53.914Z,5.4
2022-09-23T01:38:10.215Z,5.4
2022-09-23T01:39:26.497Z,5.4
2022-09-23T01:40:42.807Z,5.4
2022-09-23T01:41:59.097Z,5.5
2022-09-23T01:43:14.391Z,5.4
2022-09-23T01:44:30.700Z,5.4
2022-09-23T01:45:46.979Z,5.4
2022-09-23T01:47:03.271Z,5.4
2022-09-23T01:48:19.572Z,5.3
2022-09-23T01:49:35.863Z,5.3
2022-09-23T01:50:52.160Z,5.3
2022-09-23T01:52:08.460Z,5.3
2022-09-23T01:53:24.742Z,5.4
2022-09-23T01:54:41.031Z,5.3
2022-09-23T01:55:57.339Z,5.4
2022-09-23T01:57:13.630Z,5.3
2022-09-23T01:58:29.928Z,5.3
2022-09-23T01:59:45.219Z,5.3
2022-09-23T02:01:01.526Z,5.3
2022-09-23T02:02:17.814Z,5.3
2022-09-23T02:03:34.113Z,5.3
2022-09-23T02:04:50.399Z,5.4
2022-09-23T02:06:06.689Z,5.4
2022-09-23T02:07:22.983Z,5.3
2022-09-23T02:08:39.279Z,5.4
2022-09-23T02:09:55.570Z,5.3
2022-09-23T02:11:11.873Z,5.3
2022-09-23T02:12:28.169Z,5.3
2022-09-23T02:13:44.444Z,5.3
2022-09-23T02:15:00.750Z,5.3
2022-09-23T02:16:16.053Z,5.3
2022-09-23T02:17:32.343Z,5.3
2022-09-23T02:18:48.635Z,5.3
2022-09-23T02:20:04.945Z,5.2
2022-09-23T02:21:21.223Z,5.2
2022-09-23T02:22:37.519Z,5.2
2022-09-23T02:23:53.813Z,5.3
2022-09-23T02:25:10.108Z,5.2
2022-09-23T02:26:26.401Z,5.2
2022-09-23T02:27:42.699Z,5.2
2022-09-23T02:28:58.991Z,5.3
2022-09-23T02:30:15.285Z,5.2
2022-09-23T02:31:31.579Z,5.2
2022-09-23T02:32:46.884Z,5.2
2022-09-23T02:34:03.166Z,5.2
2022-09-23T02:35:19.479Z,5.2
2022-09-23T02:36:35.761Z,5.2
2022-09-23T02:37:52.049Z,5.2
2022-09-23T02:39:08.350Z,5.2
2022-09-23T02:40:24.635Z,5.2
2022-09-23T02:41:40.928Z,5.3
2022-09-23T02:42:57.234Z,5.2
2022-09-23T02:44:13.531Z,5.3
2022-09-23T02:45:29.811Z,5.2
2022-09-23T02:46:46.102Z,5.2
2022-09-23T02:48:02.396Z,5.2
2022-09-23T02:49:17.714Z,5.2
2022-09-23T02:50:33.993Z,5.2
2022-09-23T02:51:50.295Z,5.2
2022-09-23T02:53:06.594Z,5.2
2022-09-23T02:54:22.891Z,5.2
2022-09-23T02:55:39.178Z,5.2
2022-09-23T02:56:55.470Z,5.2
2022-09-23T02:58:11.758Z,5.2
2022-09-23T02:59:28.064Z,5.1
2022-09-23T03:00:44.356Z,5.1
2022-09-23T03:02:00.648Z,5.2
2022-09-23T03:03:16.928Z,5.1
2022-09-23T03:04:33.227Z,5.2
2022-09-23T03:05:48.526Z,5.2
2022-09-23T03:07:04.833Z,5.1
2022-09-23T03:08:21.114Z,5.1
2022-09-23T03:09:37.420Z,5.1
2022-09-23T03:10:53.704Z,5.1
2022-09-23T03:12:10.003Z,5.1
2022-09-23T03:13:26.286Z,5.1
2022-09-23T03:14:42.578Z,5.1
2022-09-23T03:15:58.874Z,5.1
2022-09-23T03:17:15.167Z,5.1
2022-09-23T03:18:31.467Z,5.1
2022-09-23T03:19:47.764Z,5.1
2022-09-23T03:21:04.055Z,5.1
2022-09-23T03:22:19.355Z,5.1
2022-09-23T03:23:35.645Z,5.1
2022-09-23T03:24:51.953Z,5.1
2022-09-23T03:26:08.244Z,5.1
2022-09-23T03:27:24.541Z,5.1
2022-09-23T03:28:40.836Z,5
2022-09-23T03:29:57.114Z,5.1
2022-09-23T03:31:13.413Z,5
2022-09-23T03:32:29.705Z,5
2022-09-23T03:33:46.002Z,5
2022-09-23T03:35:02.298Z,5
2022-09-23T03:36:18.586Z,5
2022-09-23T03:37:34.877Z,5
2022-09-23T03:38:50.193Z,5
2022-09-23T03:40:06.478Z,5
2022-09-23T03:41:22.772Z,4.9
2022-09-23T03:42:39.066Z,5
2022-09-23T03:43:55.363Z,4.9
2022-09-23T03:45:11.651Z,4.9
2022-09-23T03:46:27.955Z,4.9
2022-09-23T03:47:44.239Z,4.9
2022-09-23T03:49:00.531Z,4.9
2022-09-23T03:50:16.825Z,4.9
2022-09-23T03:51:33.119Z,4.9
2022-09-23T03:52:49.420Z,4.9
2022-09-23T03:54:05.703Z,4.9
2022-09-23T03:55:21.025Z,4.9
2022-09-23T03:56:37.299Z,4.9
2022-09-23T03:57:53.605Z,4.9
2022-09-23T03:59:09.889Z,4.9
2022-09-23T04:00:26.189Z,4.9
2022-09-23T04:01:42.471Z,4.8
2022-09-23T04:02:58.777Z,4.8
2022-09-23T04:04:15.058Z,4.9
2022-09-23T04:05:31.357Z,4.8
2022-09-23T04:06:47.647Z,4.8
2022-09-23T04:08:03.949Z,4.8
2022-09-23T04:09:20.244Z,4.8
2022-09-23T04:10:36.536Z,4.8
2022-09-23T04:11:51.847Z,4.8
2022-09-23T04:13:08.146Z,4.8
2022-09-23T04:14:24.435Z,4.8
2022-09-23T04:15:40.725Z,4.8
2022-09-23T04:16:57.010Z,4.7
2022-09-23T04:18:13.314Z,4.8
2022-09-23T04:19:29.609Z,4.7
2022-09-23T04:20:45.891Z,4.8
2022-09-23T04:22:02.190Z,4.7
2022-09-23T04:23:18.485Z,4.7
2022-09-23T04:24:34.782Z,4.8
2022-09-23T04:25:51.074Z,4.8
2022-09-23T04:27:07.299Z,4.7
2022-09-23T04:28:22.580Z,4.7
2022-09-23T04:29:38.815Z,4.7
2022-09-23T04:30:55.115Z,4.7
2022-09-23T04:32:11.355Z,4.8
2022-09-23T04:33:27.606Z,4.7
2022-09-23T04:34:43.890Z,4.7
2022-09-23T04:36:00.139Z,4.7
2022-09-23T04:37:16.378Z,4.6
2022-09-23T04:38:32.610Z,4.6
2022-09-23T04:39:48.861Z,4.6
2022-09-23T04:41:05.092Z,4.6
2022-09-23T04:42:21.338Z,4.6
2022-09-23T04:43:37.575Z,4.7
2022-09-23T04:44:52.820Z,4.7
2022-09-23T04:46:09.069Z,4.6
2022-09-23T04:47:25.319Z,4.6
2022-09-23T04:48:41.551Z,4.6
2022-09-23T04:49:57.796Z,4.6
2022-09-23T04:51:14.033Z,4.6
2022-09-23T04:52:29.286Z,4.6
2022-09-23T04:53:45.526Z,4.6
2022-09-23T04:55:01.764Z,4.6
2022-09-23T04:56:18.007Z,4.6
2022-09-23T04:57:34.244Z,4.6
2022-09-23T04:58:50.492Z,4.6
2022-09-23T05:00:06.725Z,4.6
2022-09-23T05:01:22.961Z,4.6
2022-09-23T05:02:39.202Z,4.6
2022-09-23T05:03:55.434Z,4.6
2022-09-23T05:05:11.681Z,4.7
2022-09-23T05:06:27.921Z,4.7
2022-09-23T05:07:44.158Z,4.7
2022-09-23T05:08:59.409Z,4.7
2022-09-23T05:10:15.649Z,4.7
2022-09-23T05:11:31.884Z,4.7
2022-09-23T05:12:48.123Z,4.7
2022-09-23T05:14:04.360Z,4.8
2022-09-23T05:15:20.600Z,4.8
2022-09-23T05:16:36.843Z,4.8
2022-09-23T05:17:53.077Z,4.8
2022-09-23T05:19:09.332Z,4.8
2022-09-23T05:20:25.563Z,4.8
2022-09-23T05:21:41.797Z,4.8
2022-09-23T05:22:58.044Z,4.8
2022-09-23T05:24:14.277Z,4.9
2022-09-23T05:25:29.541Z,4.8
2022-09-23T05:26:45.777Z,4.9
2022-09-23T05:28:02.000Z,4.9
2022-09-23T05:29:18.266Z,4.9
2022-09-23T05:30:34.504Z,5
2022-09-23T05:31:50.729Z,5
2022-09-23T05:33:06.978Z,5
2022-09-23T05:34:23.211Z,5
2022-09-23T05:35:39.455Z,5.1
2022-09-23T05:36:55.696Z,5.1
2022-09-23T05:38:11.924Z,5.1
2022-09-23T05:39:28.167Z,5.1
2022-09-23T05:40:44.405Z,5.2
2022-09-23T05:41:59.668Z,5.3
2022-09-23T05:43:15.898Z,5.3
2022-09-23T05:44:32.144Z,5.3
2022-09-23T05:45:48.388Z,5.3
2022-09-23T05:47:04.627Z,5.4
2022-09-23T05:48:20.858Z,5.4
2022-09-23T05:49:37.096Z,5.5
2022-09-23T05:50:53.332Z,5.5
2022-09-23T05:52:09.570Z,5.5
2022-09-23T05:53:25.821Z,5.6
2022-09-23T05:54:42.062Z,5.6
2022-09-23T05:55:58.299Z,5.7
2022-09-23T05:57:14.536Z,5.7
2022-09-23T05:58:29.794Z,5.8
2022-09-23T05:59:46.037Z,5.8
2022-09-23T06:01:02.277Z,5.9
2022-09-23T06:02:18.505Z,5.9
2022-09-23T06:03:34.754Z,6
2022-09-23T06:04:50.986Z,6
2022-09-23T06:06:07.232Z,6.1
2022-09-23T06:07:23.468Z,6.2
2022-09-23T06:08:39.711Z,6.2
2022-09-23T06:09:55.934Z,6.2
2022-09-23T06:11:12.170Z,6.3
2022-09-23T06:12:28.424Z,6.4
2022-09-23T06:13:44.652Z,6.4
2022-09-23T06:14:59.904Z,6.5
2022-09-23T06:16:16.158Z,6.5
2022-09-23T06:17:32.390Z,6.6
2022-09-23T06:18:48.635Z,6.7
2022-09-23T06:20:04.867Z,6.7
2022-09-23T06:21:21.101Z,6.7
2022-09-23T06:22:37.337Z,6.8
2022-09-23T06:23:53.597Z,6.9
2022-09-23T06:25:09.829Z,7
2022-09-23T06:26:26.060Z,7
2022-09-23T06:27:42.309Z,7.1
2022-09-23T06:28:58.535Z,7.2
2022-09-23T06:30:14.795Z,7.2
2022-09-23T06:31:30.044Z,7.3
2022-09-23T06:32:46.269Z,7.4
2022-09-23T06:34:02.524Z,7.4
2022-09-23T06:35:18.763Z,7.5
2022-09-23T06:36:34.986Z,7.6
2022-09-23T06:37:51.235Z,7.7
2022-09-23T06:39:07.465Z,7.8
2022-09-23T06:40:23.714Z,7.9
2022-09-23T06:41:39.945Z,7.9
2022-09-23T06:42:56.180Z,8
2022-09-23T06:44:12.425Z,8.1
2022-09-23T06:45:28.661Z,8.2
2022-09-23T06:46:44.897Z,8.2
2022-09-23T06:48:00.148Z,8.3
2022-09-23T06:49:16.394Z,8.4
2022-09-23T06:50:32.625Z,8.4
2022-09-23T06:51:48.873Z,8.6
2022-09-23T06:53:05.118Z,8.6
2022-09-23T06:54:21.351Z,8.7
2022-09-23T06:55:37.585Z,8.9
2022-09-23T06:56:53.822Z,9
2022-09-23T06:58:10.067Z,9
2022-09-23T06:59:26.313Z,9.1
2022-09-23T07:00:42.544Z,9.1
2022-09-23T07:01:58.789Z,9.3
2022-09-23T07:03:15.019Z,9.3
2022-09-23T07:04:30.277Z,9.4
2022-09-23T07:07:02.755Z,9.6
2022-09-23T07:08:19.000Z,9.7
2022-09-23T07:09:35.227Z,9.7
2022-09-23T07:10:51.469Z,9.8
2022-09-23T07:12:07.711Z,9.9
2022-09-23T07:13:23.961Z,10
2022-09-23T07:14:40.201Z,10.1
2022-09-23T07:15:56.431Z,10.2
2022-09-23T07:17:12.667Z,10.3
2022-09-23T07:18:28.903Z,10.4
2022-09-23T07:19:45.138Z,10.6
2022-09-23T07:21:00.406Z,10.7
2022-09-23T07:22:16.650Z,10.8
2022-09-23T07:23:32.883Z,10.9
2022-09-23T07:24:49.131Z,11
2022-09-23T07:26:05.366Z,11.1
2022-09-23T07:27:21.605Z,11.2
2022-09-23T07:28:37.833Z,11.3
2022-09-23T07:29:54.072Z,11.4
2022-09-23T07:31:10.313Z,11.6
2022-09-23T07:32:26.551Z,11.6
2022-09-23T07:33:42.800Z,11.7
2022-09-23T07:34:59.038Z,11.7
2022-09-23T07:36:15.263Z,11.9
2022-09-23T07:37:30.515Z,11.9
2022-09-23T07:38:46.752Z,12
2022-09-23T07:40:02.993Z,12.1
2022-09-23T07:41:19.241Z,12.2
2022-09-23T07:42:35.471Z,12.3
2022-09-23T07:43:51.724Z,12.4
2022-09-23T07:45:07.958Z,12.5
2022-09-23T07:46:24.203Z,12.7
2022-09-23T07:47:40.426Z,12.9
2022-09-23T07:48:56.676Z,13
2022-09-23T07:50:12.919Z,13.2
2022-09-23T07:51:29.159Z,13.4
2022-09-23T07:52:45.388Z,13.6
2022-09-23T07:54:00.636Z,13.9
2022-09-23T07:55:16.890Z,14
2022-09-23T07:56:33.114Z,14.1
2022-09-23T07:57:49.371Z,14.3
2022-09-23T07:59:05.595Z,14.5
2022-09-23T08:00:21.833Z,14.7
2022-09-23T08:01:38.069Z,14.9
2022-09-23T08:02:54.325Z,15.2
2022-09-23T08:04:10.552Z,15.3
2022-09-23T08:05:26.800Z,15.4
2022-09-23T08:07:59.269Z,15.8
2022-09-23T08:09:15.508Z,16.1
2022-09-23T08:10:30.754Z,16.2
2022-09-23T08:11:47.007Z,16.2
2022-09-23T08:13:03.232Z,16.2
2022-09-23T08:14:19.474Z,16.3
2022-09-23T08:15:35.716Z,16.4
2022-09-23T08:16:51.963Z,16.3
2022-09-23T08:18:08.191Z,16.4
2022-09-23T08:19:24.430Z,16.5
2022-09-23T08:20:40.676Z,16.8
2022-09-23T08:21:56.908Z,16.9
2022-09-23T08:23:13.153Z,17.1
2022-09-23T08:24:29.396Z,17.1
2022-09-23T08:25:45.633Z,17.3
2022-09-23T08:27:00.879Z,17.2
2022-09-23T08:28:17.111Z,17.3
2022-09-23T08:29:33.346Z,17.4
2022-09-23T08:30:49.593Z,17.6
2022-09-23T08:32:05.827Z,17.7
2022-09-23T08:33:22.067Z,17.8
2022-09-23T08:34:38.316Z,17.9
2022-09-23T08:35:54.556Z,18
2022-09-23T08:37:10.778Z,18.2
2022-09-23T08:38:27.026Z,18.4
2022-09-23T08:39:43.254Z,18.5
2022-09-23T08:40:59.499Z,18.6
2022-09-23T08:42:15.739Z,18.7
2022-09-23T08:43:31.004Z,18.6
2022-09-23T08:44:47.228Z,18.4
2022-09-23T08:46:03.465Z,18.1
2022-09-23T08:47:19.716Z,18
2022-09-23T08:48:35.953Z,18
2022-09-23T08:49:52.192Z,18.4
2022-09-23T08:51:08.420Z,18.7
2022-09-23T08:52:24.665Z,19.1
2022-09-23T08:53:40.904Z,19.5
2022-09-23T08:54:57.142Z,19.8
2022-09-23T08:56:13.372Z,20.1
2022-09-23T08:57:29.624Z,20.3
2022-09-23T08:58:45.855Z,20.6
2022-09-23T09:00:01.101Z,21
2022-09-23T09:01:17.342Z,21.4
2022-09-23T09:02:33.591Z,21.8
2022-09-23T09:03:49.832Z,21.6
2022-09-23T09:05:06.068Z,21.4
2022-09-23T09:06:22.295Z,21.1
2022-09-23T09:07:37.564Z,21.4
2022-09-23T09:08:53.793Z,21.7
2022-09-23T09:10:10.039Z,22
2022-09-23T09:11:26.280Z,22.2
2022-09-23T09:12:42.514Z,22.1
2022-09-23T09:13:58.751Z,22.2
2022-09-23T09:15:14.997Z,22.4
2022-09-23T09:16:31.230Z,22.7
2022-09-23T09:17:47.478Z,22.5
2022-09-23T09:19:03.709Z,22.4
2022-09-23T09:20:19.949Z,22.5
2022-09-23T09:21:36.176Z,22.7
2022-09-23T09:22:52.417Z,22.8
2022-09-23T09:24:07.687Z,22.9
2022-09-23T09:25:23.922Z,22.6
2022-09-23T09:26:40.160Z,22.4
2022-09-23T09:27:56.387Z,22.4
2022-09-23T09:29:12.631Z,22.4
2022-09-23T09:30:28.876Z,22.5
2022-09-23T09:31:45.099Z,22.6
2022-09-23T09:33:01.357Z,22.8
2022-09-23T09:34:17.591Z,22.6
2022-09-23T09:35:33.827Z,22.9
2022-09-23T09:36:50.054Z,22.9
2022-09-23T09:38:06.304Z,23
2022-09-23T09:39:22.543Z,22.7
2022-09-23T09:40:37.792Z,22.3
2022-09-23T09:41:54.040Z,22.3
2022-09-23T09:43:10.273Z,22.4
2022-09-23T09:44:26.505Z,22.6
2022-09-23T09:45:42.739Z,22.9
2022-09-23T09:46:58.997Z,23.1
2022-09-23T09:48:15.221Z,23.5
2022-09-23T09:49:31.460Z,23.6
2022-09-23T09:50:47.705Z,23.5
2022-09-23T09:52:03.942Z,23.5
2022-09-23T09:53:20.173Z,23.4
2022-09-23T09:54:36.421Z,23.3
2022-09-23T09:55:52.651Z,23.6
2022-09-23T09:57:07.921Z,24.1
2022-09-23T09:58:24.154Z,24.5
2022-09-23T09:59:40.394Z,24.8
2022-09-23T10:00:56.632Z,25.2
2022-09-23T10:02:12.872Z,25.2
2022-09-23T10:03:29.107Z,25.2
2022-09-23T10:04:45.348Z,25.3
2022-09-23T10:06:01.580Z,25.4
2022-09-23T10:07:17.813Z,25.2
2022-09-23T10:08:34.051Z,25.1
2022-09-23T10:09:50.300Z,24.9
2022-09-23T10:11:06.547Z,24.8
2022-09-23T10:12:22.785Z,24.9
2022-09-23T10:13:38.028Z,24.8
2022-09-23T10:14:54.270Z,24.7
2022-09-23T10:16:10.507Z,24.8
2022-09-23T10:17:26.746Z,24.6
2022-09-23T10:18:42.977Z,24.8
2022-09-23T10:19:59.216Z,25
2022-09-23T10:21:15.457Z,25.2
2022-09-23T10:22:31.696Z,25.1
2022-09-23T10:23:47.949Z,25
2022-09-23T10:25:04.179Z,25
2022-09-23T10:26:20.415Z,24.7
2022-09-23T10:27:36.661Z,25
2022-09-23T10:28:52.891Z,25.3
2022-09-23T10:30:08.145Z,25.3
2022-09-23T10:31:24.391Z,25.4
2022-09-23T10:32:40.631Z,25.7
2022-09-23T10:33:56.873Z,25.9
2022-09-23T10:35:13.111Z,25.9
2022-09-23T10:36:29.347Z,25.5
2022-09-23T10:37:45.579Z,25.2
2022-09-23T10:39:01.825Z,25
2022-09-23T10:40:18.052Z,25.1
2022-09-23T10:41:34.308Z,24.9
2022-09-23T10:42:50.544Z,24.4
2022-09-23T10:44:06.772Z,24
2022-09-23T10:45:23.013Z,23.9
2022-09-23T10:46:38.275Z,23.8
2022-09-23T10:47:54.505Z,23.6
2022-09-23T10:49:10.742Z,23.5
2022-09-23T10:50:26.976Z,23.7
2022-09-23T10:51:43.220Z,23.8
2022-09-23T10:52:59.456Z,23.9
2022-09-23T10:54:15.694Z,24.2
2022-09-23T10:55:31.944Z,24.4
2022-09-23T10:56:48.174Z,24.3
2022-09-23T10:58:04.407Z,24.2
2022-09-23T10:59:20.662Z,24.1
2022-09-23T11:00:36.896Z,24.1
2022-09-23T11:01:53.129Z,24.3
2022-09-23T11:03:08.393Z,24.3
2022-09-23T11:04:24.621Z,24.3
2022-09-23T11:05:40.867Z,24.5
2022-09-23T11:06:57.094Z,24.7
2022-09-23T11:08:13.343Z,24.7
2022-09-23T11:09:29.574Z,25
2022-09-23T11:10:45.822Z,25
2022-09-23T11:12:02.049Z,24.8
2022-09-23T11:13:18.298Z,24.8
2022-09-23T11:14:34.524Z,24.6
2022-09-23T11:15:50.768Z,24.7
2022-09-23T11:17:07.006Z,24.6
2022-09-23T11:18:23.240Z,24.5
2022-09-23T11:19:38.506Z,24.5
2022-09-23T11:20:54.733Z,24.2
2022-09-23T11:22:10.991Z,23.8
2022-09-23T11:23:27.228Z,23.2
2022-09-23T11:24:43.448Z,22.8
2022-09-23T11:25:59.702Z,22.3
2022-09-23T11:27:15.926Z,22.2
2022-09-23T11:28:32.182Z,21.9
2022-09-23T11:29:48.416Z,21.7
2022-09-23T11:31:04.657Z,21.3
2022-09-23T11:32:20.888Z,21.1
2022-09-23T11:33:37.130Z,21.1
2022-09-23T11:34:53.365Z,21.1
2022-09-23T11:36:08.629Z,20.7
2022-09-23T11:37:24.852Z,20.4
2022-09-23T11:38:41.108Z,20.1
2022-09-23T11:39:57.346Z,19.9
2022-09-23T11:41:13.577Z,19.8
2022-09-23T11:42:29.820Z,20.1
2022-09-23T11:43:46.054Z,20.7
2022-09-23T11:45:02.293Z,21.2
2022-09-23T11:46:18.531Z,21.3
2022-09-23T11:47:34.775Z,21.8
2022-09-23T11:48:51.002Z,21.8
2022-09-23T11:50:07.248Z,21.6
2022-09-23T11:51:23.480Z,22
2022-09-23T11:52:38.727Z,22
2022-09-23T11:53:54.969Z,22.2
2022-09-23T11:55:11.220Z,22
2022-09-23T11:56:27.456Z,22
2022-09-23T11:57:43.698Z,22.6
2022-09-23T11:58:59.922Z,23
2022-09-23T12:00:16.158Z,23.5
2022-09-23T12:01:32.400Z,24
2022-09-23T12:02:48.640Z,24.5
2022-09-23T12:04:04.888Z,24.9
2022-09-23T12:05:21.122Z,25.3
2022-09-23T12:06:37.364Z,25.6
2022-09-23T12:07:53.607Z,25.2
2022-09-23T12:09:08.853Z,25.2
2022-09-23T12:11:41.329Z,26
2022-09-23T12:12:57.568Z,26.4
2022-09-23T12:14:13.804Z,26.6
2022-09-23T12:15:30.045Z,26.3
2022-09-23T12:16:46.287Z,26.2
2022-09-23T12:18:02.526Z,25.5
2022-09-23T12:19:18.757Z,25.3
2022-09-23T12:21:51.246Z,25.1
2022-09-23T12:23:07.483Z,24.7
2022-09-23T12:24:23.714Z,24.8
2022-09-23T12:25:38.982Z,24.5
2022-09-23T12:26:55.203Z,24.5
2022-09-23T12:28:11.458Z,24.4
2022-09-23T12:29:27.695Z,24.2
2022-09-23T12:30:43.919Z,24.2
2022-09-23T12:32:00.175Z,23.9
2022-09-23T12:33:16.406Z,23
2022-09-23T12:34:32.650Z,22.4
2022-09-23T12:35:48.893Z,22.6
2022-09-23T12:37:05.123Z,22.7
2022-09-23T12:38:21.365Z,22.8
2022-09-23T12:39:37.597Z,23.1
2022-09-23T12:40:53.843Z,23.7
2022-09-23T12:42:09.102Z,24.1
2022-09-23T12:43:25.324Z,24.6
2022-09-23T12:44:41.565Z,24.9
2022-09-23T12:45:57.811Z,24.9
2022-09-23T12:47:14.047Z,25.1
2022-09-23T12:48:30.279Z,25.2
2022-09-23T12:49:46.528Z,25.1
2022-09-23T12:51:02.768Z,25.1
2022-09-23T12:52:19.013Z,25.1
2022-09-23T12:53:35.248Z,25
2022-09-23T12:54:51.493Z,24.6
2022-09-23T12:56:07.716Z,24.2
2022-09-23T12:57:23.969Z,23.3
2022-09-23T12:58:39.211Z,22.5
2022-09-23T12:59:55.454Z,22
2022-09-23T13:01:11.695Z,21.6
2022-09-23T13:02:27.937Z,21
2022-09-23T13:05:00.407Z,20.2
2022-09-23T13:06:16.646Z,19.9
2022-09-23T13:07:32.890Z,19.7
2022-09-23T13:08:49.127Z,19.7
2022-09-23T13:10:05.357Z,19.7
2022-09-23T13:11:21.594Z,19.6
2022-09-23T13:12:37.848Z,19.7
2022-09-23T13:13:54.077Z,19.8
2022-09-23T13:15:09.342Z,19.9
2022-09-23T13:16:25.583Z,20.4
2022-09-23T13:17:41.824Z,20.5
2022-09-23T13:18:58.059Z,20.5
2022-09-23T13:20:14.295Z,20.5
2022-09-23T13:21:30.535Z,20.5
2022-09-23T13:22:45.786Z,20.5
2022-09-23T13:24:02.039Z,20.5
2022-09-23T13:25:18.262Z,20.3
2022-09-23T13:26:34.502Z,20
2022-09-23T13:27:50.741Z,19.8
2022-09-23T13:29:06.993Z,19.7
2022-09-23T13:30:23.223Z,19.5
2022-09-23T13:31:39.468Z,19.6
2022-09-23T13:32:55.706Z,20
2022-09-23T13:34:11.941Z,19.7
2022-09-23T13:35:28.166Z,20.1
2022-09-23T13:36:44.422Z,20.8
2022-09-23T13:38:00.645Z,21.4
2022-09-23T13:39:15.911Z,22
2022-09-23T13:40:32.154Z,22.4
2022-09-23T13:41:48.395Z,22.5
2022-09-23T13:43:04.615Z,22.9
2022-09-23T13:44:20.862Z,23.3
2022-09-23T13:45:37.111Z,23.8
2022-09-23T13:46:53.337Z,23.9
2022-09-23T13:48:09.570Z,23.6
2022-09-23T13:49:25.823Z,22.9
2022-09-23T13:50:42.055Z,22.5
2022-09-23T13:51:58.303Z,21.8
2022-09-23T13:53:14.530Z,21.8
2022-09-23T13:54:30.779Z,21.8
2022-09-23T13:55:46.018Z,21.8
2022-09-23T13:57:02.258Z,22
2022-09-23T13:58:18.500Z,22.1
2022-09-23T13:59:34.747Z,22.3
2022-09-23T14:00:50.982Z,22.3
2022-09-23T14:02:07.218Z,22.3
2022-09-23T14:03:23.469Z,22.4
2022-09-23T14:04:39.702Z,22.1
2022-09-23T14:05:55.928Z,21.6
2022-09-23T14:07:12.168Z,21.2
2022-09-23T14:08:28.405Z,20.9
2022-09-23T14:09:44.652Z,20.8
2022-09-23T14:11:00.899Z,21.1
2022-09-23T14:12:16.155Z,21.5
2022-09-23T14:13:32.391Z,21.8
2022-09-23T14:14:48.631Z,22.1
2022-09-23T14:16:04.856Z,22.3
2022-09-23T14:17:21.109Z,22.5
2022-09-23T14:18:37.351Z,22.7
2022-09-23T14:19:53.571Z,22.6
2022-09-23T14:21:09.822Z,21.9
2022-09-23T14:22:26.052Z,21.3
2022-09-23T14:23:42.302Z,20.9
2022-09-23T14:24:58.525Z,20.7
2022-09-23T14:26:14.763Z,20.5
2022-09-23T14:27:31.020Z,20.4
2022-09-23T14:28:46.265Z,20.4
2022-09-23T14:30:02.501Z,20.3
2022-09-23T14:31:18.750Z,20.3
2022-09-23T14:32:34.974Z,20.5
2022-09-23T14:33:51.219Z,20.7
2022-09-23T14:35:07.453Z,20.9
2022-09-23T14:36:23.705Z,20.9
2022-09-23T14:37:39.936Z,20.7
2022-09-23T14:38:56.169Z,20.6
2022-09-23T14:40:12.412Z,20.4
2022-09-23T14:41:28.643Z,20.1
2022-09-23T14:42:44.879Z,19.8
2022-09-23T14:44:01.134Z,19.7
2022-09-23T14:45:16.388Z,19.6
2022-09-23T14:46:32.622Z,19.6
2022-09-23T14:47:48.867Z,19.6
2022-09-23T14:49:05.106Z,19.7
2022-09-23T14:50:21.330Z,19.7
2022-09-23T14:51:37.580Z,19.7
2022-09-23T14:52:53.805Z,19.9
2022-09-23T14:54:10.051Z,19.9
2022-09-23T14:55:26.292Z,20
2022-09-23T14:56:42.539Z,20
2022-09-23T14:57:58.757Z,20
2022-09-23T14:59:15.000Z,19.9
2022-09-23T15:00:31.236Z,19.8
2022-09-23T15:01:46.501Z,19.8
2022-09-23T15:03:02.740Z,19.7
2022-09-23T15:04:18.967Z,19.6
2022-09-23T15:05:35.206Z,19.5
2022-09-23T15:06:51.463Z,19.4
2022-09-23T15:08:07.691Z,19.4
2022-09-23T15:09:23.920Z,19.6
2022-09-23T15:10:40.167Z,19.8
2022-09-23T15:11:56.407Z,19.9
2022-09-23T15:13:12.646Z,20
2022-09-23T15:14:28.886Z,19.9
2022-09-23T15:15:45.120Z,19.9
2022-09-23T15:17:01.332Z,19.8
2022-09-23T15:18:16.601Z,19.7
2022-09-23T15:19:32.820Z,19.7
2022-09-23T15:20:49.068Z,19.8
2022-09-23T15:22:05.300Z,19.7
2022-09-23T15:23:21.535Z,19.7
2022-09-23T15:24:37.775Z,19.7
2022-09-23T15:25:54.024Z,19.7
2022-09-23T15:27:10.268Z,19.6
2022-09-23T15:28:26.492Z,19.5
2022-09-23T15:29:42.740Z,19.4
2022-09-23T15:30:58.979Z,19.3
2022-09-23T15:32:15.208Z,19.2
2022-09-23T15:33:31.459Z,19.1
2022-09-23T15:34:46.699Z,19
2022-09-23T15:36:02.939Z,18.9
2022-09-23T15:37:19.180Z,18.8
2022-09-23T15:38:35.427Z,18.8
2022-09-23T15:39:51.666Z,18.8
2022-09-23T15:41:07.898Z,18.8
2022-09-23T15:42:24.143Z,18.8
2022-09-23T15:43:40.370Z,18.6
2022-09-23T15:44:56.616Z,18.5
2022-09-23T15:46:12.850Z,18.5
2022-09-23T15:47:29.087Z,18.4
2022-09-23T15:48:45.338Z,18.4
2022-09-23T15:50:01.571Z,18.3
2022-09-23T15:51:16.832Z,18.2
2022-09-23T15:52:33.067Z,18.2
2022-09-23T15:53:49.311Z,18.2
2022-09-23T15:55:05.545Z,18.2
2022-09-23T15:56:21.771Z,18.2
2022-09-23T15:57:38.018Z,18.2
2022-09-23T15:58:54.265Z,18.2
2022-09-23T16:00:10.493Z,18.2
2022-09-23T16:01:26.726Z,18.2
2022-09-23T16:02:42.979Z,18.1
2022-09-23T16:03:59.211Z,18.1
2022-09-23T16:05:15.446Z,18
2022-09-23T16:06:31.693Z,18
2022-09-23T16:07:46.953Z,17.9
2022-09-23T16:09:03.186Z,17.9
2022-09-23T16:10:19.417Z,17.9
2022-09-23T16:11:35.665Z,17.8
2022-09-23T16:12:51.886Z,17.7
2022-09-23T16:14:08.141Z,17.6
2022-09-23T16:15:24.381Z,17.6
2022-09-23T16:16:40.606Z,17.5
2022-09-23T16:17:56.856Z,17.5
2022-09-23T16:19:13.082Z,17.5
2022-09-23T16:20:29.326Z,17.5
2022-09-23T16:21:45.557Z,17.5
2022-09-23T16:23:01.800Z,17.4
2022-09-23T16:24:17.056Z,17.4
2022-09-23T16:25:33.303Z,17.3
2022-09-23T16:26:49.535Z,17.3
2022-09-23T16:28:05.766Z,17.2
2022-09-23T16:29:22.003Z,17.2
2022-09-23T16:30:38.252Z,17.1
2022-09-23T16:31:54.486Z,17.1
2022-09-23T16:33:10.731Z,17.1
2022-09-23T16:34:26.962Z,17
2022-09-23T16:35:43.205Z,16.9
2022-09-23T16:36:59.452Z,16.9
2022-09-23T16:38:15.690Z,16.8
2022-09-23T16:39:31.914Z,16.8
2022-09-23T16:40:47.179Z,16.7
2022-09-23T16:42:03.404Z,16.7
2022-09-23T16:43:19.655Z,16.6
2022-09-23T16:44:35.890Z,16.6
2022-09-23T16:45:52.135Z,16.5
2022-09-23T16:47:08.360Z,16.5
2022-09-23T16:48:24.607Z,16.4
2022-09-23T16:49:40.833Z,16.3
2022-09-23T16:50:57.085Z,16.3
2022-09-23T16:52:13.323Z,16.2
2022-09-23T16:53:29.561Z,16.2
2022-09-23T16:54:45.793Z,16.1
2022-09-23T16:56:02.044Z,16.1
2022-09-23T16:57:17.285Z,16
2022-09-23T16:58:33.536Z,16
2022-09-23T17:01:06.016Z,15.9
2022-09-23T17:02:22.249Z,15.8
2022-09-23T17:03:38.484Z,15.7
2022-09-23T17:04:54.728Z,15.7
2022-09-23T17:06:10.953Z,15.6
2022-09-23T17:07:27.198Z,15.6
2022-09-23T17:08:43.436Z,15.5
2022-09-23T17:09:59.673Z,15.5
2022-09-23T17:11:15.000Z,15.4
2022-09-23T17:12:32.147Z,15.3
2022-09-23T17:13:47.408Z,15.3
2022-09-23T17:15:03.649Z,15.2
2022-09-23T17:16:19.890Z,15.1
2022-09-23T17:17:36.121Z,15.1
2022-09-23T17:18:52.354Z,15
2022-09-23T17:20:08.607Z,15
2022-09-23T17:21:24.830Z,14.9
2022-09-23T17:22:41.077Z,14.9